createdAt,value
2022-11-22T00:00:11.745Z,2.55
2022-11-22T00:01:11.764Z,2.60
2022-11-22T00:02:11.779Z,2.63
2022-11-22T00:03:11.763Z,2.68
2022-11-22T00:04:11.708Z,2.71
2022-11-22T00:05:11.767Z,2.66
2022-11-22T00:06:11.771Z,2.69
2022-11-22T00:07:11.742Z,2.78
2022-11-22T00:08:11.681Z,2.79
2022-11-22T00:09:12.254Z,2.81
2022-11-22T00:10:11.721Z,2.66
2022-11-22T00:11:11.684Z,2.81
2022-11-22T00:12:11.695Z,2.76
2022-11-22T00:13:11.669Z,2.78
2022-11-22T00:14:11.673Z,2.69
2022-11-22T00:15:11.683Z,2.76
2022-11-22T00:16:11.652Z,2.76
2022-11-22T00:17:11.662Z,2.91
2022-11-22T00:18:11.649Z,2.82
2022-11-22T00:19:11.631Z,2.78
2022-11-22T00:20:11.628Z,2.82
2022-11-22T00:21:11.654Z,2.89
2022-11-22T00:22:11.647Z,2.99
2022-11-22T00:23:11.626Z,2.79
2022-11-22T00:24:12.164Z,2.99
2022-11-22T00:25:11.609Z,2.89
2022-11-22T00:26:11.614Z,2.79
2022-11-22T00:27:11.598Z,2.90
2022-11-22T00:28:11.647Z,2.79
2022-11-22T00:29:11.554Z,2.84
2022-11-22T00:30:11.617Z,2.72
2022-11-22T00:31:11.631Z,2.72
2022-11-22T00:32:11.571Z,2.73
2022-11-22T00:33:11.603Z,2.65
2022-11-22T00:34:11.560Z,2.72
2022-11-22T00:35:11.594Z,2.71
2022-11-22T00:36:11.768Z,2.86
2022-11-22T00:37:11.757Z,2.78
2022-11-22T00:38:11.554Z,2.68
2022-11-22T00:39:11.531Z,2.71
2022-11-22T00:40:11.518Z,2.73
2022-11-22T00:41:11.560Z,2.81
2022-11-22T00:42:11.572Z,2.71
2022-11-22T00:43:11.560Z,2.78
2022-11-22T00:44:11.549Z,2.69
2022-11-22T00:45:11.474Z,2.81
2022-11-22T00:46:11.608Z,2.82
2022-11-22T00:47:11.592Z,2.81
2022-11-22T00:48:11.554Z,2.99
2022-11-22T00:49:11.473Z,2.81
2022-11-22T00:50:11.497Z,2.82
2022-11-22T00:51:11.497Z,2.84
2022-11-22T00:52:11.496Z,2.89
2022-11-22T00:53:11.569Z,2.89
2022-11-22T00:54:11.461Z,2.99
2022-11-22T00:55:11.450Z,2.94
2022-11-22T00:56:11.447Z,2.84
2022-11-22T00:57:12.478Z,2.90
2022-11-22T00:58:11.549Z,2.96
2022-11-22T00:59:11.440Z,2.93
2022-11-22T01:00:11.439Z,2.97
2022-11-22T01:01:11.493Z,3.02
2022-11-22T01:02:11.447Z,3.00
2022-11-22T01:03:12.543Z,2.97
2022-11-22T01:04:11.425Z,3.02
2022-11-22T01:05:11.388Z,3.00
2022-11-22T01:06:11.362Z,3.08
2022-11-22T01:07:11.429Z,3.04
2022-11-22T01:08:11.392Z,3.04
2022-11-22T01:09:11.391Z,3.05
2022-11-22T01:10:11.397Z,2.99
2022-11-22T01:11:11.397Z,3.12
2022-11-22T01:12:11.391Z,3.11
2022-11-22T01:13:11.375Z,2.97
2022-11-22T01:14:11.378Z,3.00
2022-11-22T01:15:11.313Z,3.07
2022-11-22T01:16:11.379Z,3.00
2022-11-22T01:17:11.334Z,2.94
2022-11-22T01:18:11.355Z,2.90
2022-11-22T01:19:11.318Z,2.97
2022-11-22T01:20:11.338Z,2.99
2022-11-22T01:21:11.283Z,3.09
2022-11-22T01:22:11.292Z,3.00
2022-11-22T01:23:11.325Z,3.02
2022-11-22T01:24:11.296Z,2.94
2022-11-22T01:25:11.314Z,2.97
2022-11-22T01:26:11.289Z,2.96
2022-11-22T01:27:11.370Z,2.97
2022-11-22T01:28:11.285Z,2.96
2022-11-22T01:29:11.287Z,3.08
2022-11-22T01:30:11.247Z,3.18
2022-11-22T01:31:11.364Z,3.20
2022-11-22T01:32:11.280Z,3.20
2022-11-22T01:33:11.292Z,3.15
2022-11-22T01:34:11.247Z,3.07
2022-11-22T01:35:11.256Z,3.02
2022-11-22T01:36:11.327Z,3.12
2022-11-22T01:37:11.230Z,3.15
2022-11-22T01:38:11.206Z,3.14
2022-11-22T01:39:11.231Z,3.17
2022-11-22T01:40:11.195Z,3.20
2022-11-22T01:41:11.201Z,3.09
2022-11-22T01:42:11.311Z,3.12
2022-11-22T01:43:11.221Z,3.23
2022-11-22T01:44:11.194Z,3.09
2022-11-22T01:45:11.166Z,3.22
2022-11-22T01:46:11.174Z,3.12
2022-11-22T01:47:11.310Z,3.17
2022-11-22T01:48:11.173Z,3.11
2022-11-22T01:49:11.180Z,3.15
2022-11-22T01:50:11.166Z,3.17
2022-11-22T01:51:11.134Z,3.11
2022-11-22T01:52:11.132Z,3.22
2022-11-22T01:53:11.195Z,3.20
2022-11-22T01:54:11.168Z,3.22
2022-11-22T01:55:11.125Z,3.11
2022-11-22T01:56:11.141Z,3.05
2022-11-22T01:57:11.128Z,3.14
2022-11-22T01:58:11.114Z,3.29
2022-11-22T01:59:11.113Z,3.14
2022-11-22T02:00:11.170Z,3.17
2022-11-22T02:01:11.207Z,3.33
2022-11-22T02:02:11.134Z,3.30
2022-11-22T02:03:11.145Z,3.29
2022-11-22T02:04:11.291Z,3.27
2022-11-22T02:05:11.149Z,3.25
2022-11-22T02:06:11.059Z,3.32
2022-11-22T02:07:11.123Z,3.26
2022-11-22T02:08:11.084Z,3.29
2022-11-22T02:09:11.174Z,3.30
2022-11-22T02:10:11.060Z,3.27
2022-11-22T02:11:11.042Z,3.26
2022-11-22T02:12:11.056Z,3.29
2022-11-22T02:13:11.051Z,3.36
2022-11-22T02:14:11.059Z,3.30
2022-11-22T02:15:11.072Z,3.35
2022-11-22T02:16:11.015Z,3.37
2022-11-22T02:17:11.042Z,3.44
2022-11-22T02:18:11.050Z,3.42
2022-11-22T02:19:11.019Z,3.49
2022-11-22T02:20:11.041Z,3.54
2022-11-22T02:21:11.003Z,3.51
2022-11-22T02:22:11.016Z,3.55
2022-11-22T02:23:10.999Z,3.63
2022-11-22T02:24:10.983Z,3.62
2022-11-22T02:25:10.976Z,3.60
2022-11-22T02:26:11.005Z,3.55
2022-11-22T02:27:11.863Z,3.52
2022-11-22T02:28:10.977Z,3.59
2022-11-22T02:29:10.980Z,3.59
2022-11-22T02:30:10.939Z,3.56
2022-11-22T02:31:11.295Z,3.67
2022-11-22T02:32:10.991Z,3.60
2022-11-22T02:33:10.929Z,3.55
2022-11-22T02:34:10.953Z,3.62
2022-11-22T02:35:10.929Z,3.56
2022-11-22T02:36:10.909Z,3.56
2022-11-22T02:37:12.000Z,3.64
2022-11-22T02:38:10.901Z,3.60
2022-11-22T02:39:10.918Z,3.69
2022-11-22T02:40:10.914Z,3.60
2022-11-22T02:41:10.923Z,3.54
2022-11-22T02:42:10.934Z,3.56
2022-11-22T02:43:10.927Z,3.56
2022-11-22T02:44:10.880Z,3.55
2022-11-22T02:45:10.855Z,3.52
2022-11-22T02:46:10.910Z,3.59
2022-11-22T02:47:10.899Z,3.60
2022-11-22T02:48:10.882Z,3.64
2022-11-22T02:49:10.870Z,3.70
2022-11-22T02:50:10.849Z,3.72
2022-11-22T02:51:10.852Z,3.63
2022-11-22T02:52:10.875Z,3.70
2022-11-22T02:53:11.698Z,3.62
2022-11-22T02:54:10.829Z,3.82
2022-11-22T02:55:11.387Z,3.70
2022-11-22T02:56:10.786Z,3.72
2022-11-22T02:57:10.816Z,3.72
2022-11-22T02:58:10.811Z,3.74
2022-11-22T02:59:10.819Z,3.70
2022-11-22T03:00:10.799Z,3.74
2022-11-22T03:01:10.847Z,3.64
2022-11-22T03:02:10.814Z,3.74
2022-11-22T03:03:10.765Z,3.74
2022-11-22T03:04:10.807Z,3.72
2022-11-22T03:05:10.755Z,3.69
2022-11-22T03:06:10.785Z,3.67
2022-11-22T03:07:10.843Z,3.76
2022-11-22T03:08:10.725Z,3.69
2022-11-22T03:09:10.784Z,3.74
2022-11-22T03:10:10.775Z,3.80
2022-11-22T03:11:10.754Z,3.66
2022-11-22T03:12:10.733Z,3.74
2022-11-22T03:13:10.755Z,3.74
2022-11-22T03:14:10.737Z,3.66
2022-11-22T03:15:10.700Z,3.74
2022-11-22T03:16:10.731Z,3.91
2022-11-22T03:17:10.739Z,3.85
2022-11-22T03:18:10.720Z,3.85
2022-11-22T03:19:10.700Z,3.88
2022-11-22T03:20:10.683Z,3.76
2022-11-22T03:21:10.714Z,3.92
2022-11-22T03:22:11.736Z,3.87
2022-11-22T03:23:11.659Z,3.90
2022-11-22T03:24:10.676Z,3.87
2022-11-22T03:25:10.684Z,3.96
2022-11-22T03:26:10.724Z,3.87
2022-11-22T03:27:10.681Z,3.94
2022-11-22T03:28:10.633Z,4.03
2022-11-22T03:29:10.676Z,4.02
2022-11-22T03:30:10.657Z,3.99
2022-11-22T03:31:10.625Z,4.10
2022-11-22T03:32:10.654Z,4.02
2022-11-22T03:33:10.645Z,4.13
2022-11-22T03:34:10.615Z,4.02
2022-11-22T03:35:10.605Z,4.20
2022-11-22T03:36:10.608Z,4.02
2022-11-22T03:37:10.626Z,4.08
2022-11-22T03:38:10.621Z,4.05
2022-11-22T03:39:10.585Z,4.09
2022-11-22T03:40:10.568Z,4.06
2022-11-22T03:41:10.567Z,4.16
2022-11-22T03:42:10.588Z,4.21
2022-11-22T03:43:10.687Z,4.06
2022-11-22T03:44:10.566Z,4.13
2022-11-22T03:45:10.578Z,4.20
2022-11-22T03:46:10.565Z,4.10
2022-11-22T03:47:10.536Z,4.20
2022-11-22T03:48:10.692Z,4.12
2022-11-22T03:49:10.547Z,4.17
2022-11-22T03:50:10.495Z,4.13
2022-11-22T03:51:10.547Z,4.18
2022-11-22T03:52:10.503Z,4.17
2022-11-22T03:53:10.643Z,4.17
2022-11-22T03:54:10.487Z,4.20
2022-11-22T03:55:10.503Z,4.12
2022-11-22T03:56:10.500Z,4.17
2022-11-22T03:57:10.526Z,4.21
2022-11-22T03:58:10.500Z,4.12
2022-11-22T03:59:10.487Z,4.13
2022-11-22T04:00:10.479Z,4.13
2022-11-22T04:01:16.146Z,4.21
2022-11-22T04:02:12.543Z,4.24
2022-11-22T04:03:10.459Z,4.13
2022-11-22T04:04:10.513Z,4.34
2022-11-22T04:05:10.431Z,4.12
2022-11-22T04:06:10.447Z,4.20
2022-11-22T04:07:10.468Z,4.16
2022-11-22T04:08:10.453Z,4.18
2022-11-22T04:09:10.526Z,4.21
2022-11-22T04:10:10.432Z,4.17
2022-11-22T04:11:10.400Z,4.26
2022-11-22T04:12:10.415Z,4.13
2022-11-22T04:13:10.411Z,4.23
2022-11-22T04:14:10.428Z,4.18
2022-11-22T04:15:11.509Z,4.17
2022-11-22T04:16:10.370Z,4.20
2022-11-22T04:17:10.411Z,4.13
2022-11-22T04:18:10.372Z,4.17
2022-11-22T04:19:10.390Z,4.13
2022-11-22T04:20:10.364Z,4.16
2022-11-22T04:21:10.470Z,4.21
2022-11-22T04:22:10.338Z,4.21
2022-11-22T04:23:10.338Z,4.17
2022-11-22T04:24:10.351Z,4.06
2022-11-22T04:25:10.324Z,4.16
2022-11-22T04:26:10.360Z,4.09
2022-11-22T04:27:10.314Z,4.18
2022-11-22T04:28:10.322Z,4.05
2022-11-22T04:29:10.706Z,4.09
2022-11-22T04:30:13.766Z,4.27
2022-11-22T04:31:11.343Z,4.21
2022-11-22T04:32:10.277Z,4.23
2022-11-22T04:33:10.293Z,4.21
2022-11-22T04:34:10.313Z,4.21
2022-11-22T04:35:10.276Z,4.27
2022-11-22T04:36:13.339Z,4.34
2022-11-22T04:37:11.366Z,4.31
2022-11-22T04:38:10.269Z,4.35
2022-11-22T04:39:10.244Z,4.38
2022-11-22T04:40:10.311Z,4.26
2022-11-22T04:41:10.236Z,4.34
2022-11-22T04:42:10.248Z,4.34
2022-11-22T04:43:10.253Z,4.35
2022-11-22T04:44:10.270Z,4.41
2022-11-22T04:45:10.281Z,4.43
2022-11-22T04:46:10.229Z,4.43
2022-11-22T04:47:10.225Z,4.35
2022-11-22T04:48:10.265Z,4.41
2022-11-22T04:49:10.222Z,4.35
2022-11-22T04:50:10.283Z,4.41
2022-11-22T04:51:10.180Z,4.30
2022-11-22T04:52:10.188Z,4.27
2022-11-22T04:53:10.204Z,4.31
2022-11-22T04:54:10.229Z,4.31
2022-11-22T04:55:10.197Z,4.34
2022-11-22T04:56:10.212Z,4.30
2022-11-22T04:57:10.163Z,4.26
2022-11-22T04:58:10.148Z,4.31
2022-11-22T04:59:10.199Z,4.35
2022-11-22T05:00:10.176Z,4.41
2022-11-22T05:01:10.177Z,4.34
2022-11-22T05:02:10.126Z,4.49
2022-11-22T05:03:10.144Z,4.48
2022-11-22T05:04:10.150Z,4.46
2022-11-22T05:05:10.208Z,4.49
2022-11-22T05:06:10.147Z,4.49
2022-11-22T05:07:10.085Z,4.46
2022-11-22T05:08:10.123Z,4.54
2022-11-22T05:09:10.111Z,4.57
2022-11-22T05:10:10.227Z,4.54
2022-11-22T05:11:10.085Z,4.57
2022-11-22T05:12:10.094Z,4.57
2022-11-22T05:13:10.045Z,4.54
2022-11-22T05:14:10.057Z,4.56
2022-11-22T05:15:10.020Z,4.54
2022-11-22T05:16:10.053Z,4.57
2022-11-22T05:17:13.155Z,4.56
2022-11-22T05:18:11.045Z,4.51
2022-11-22T05:19:10.016Z,4.53
2022-11-22T05:20:10.083Z,4.53
2022-11-22T05:21:10.180Z,4.43
2022-11-22T05:22:10.027Z,4.28
2022-11-22T05:23:10.031Z,4.34
2022-11-22T05:24:10.022Z,4.35
2022-11-22T05:25:10.052Z,4.35
2022-11-22T05:26:10.030Z,4.34
2022-11-22T05:27:10.001Z,4.43
2022-11-22T05:28:10.041Z,4.39
2022-11-22T05:29:10.015Z,4.39
2022-11-22T05:30:09.962Z,4.21
2022-11-22T05:31:09.967Z,4.36
2022-11-22T05:32:10.000Z,4.46
2022-11-22T05:33:10.013Z,4.45
2022-11-22T05:34:09.965Z,4.36
2022-11-22T05:35:09.967Z,4.45
2022-11-22T05:36:09.954Z,4.48
2022-11-22T05:37:09.958Z,4.36
2022-11-22T05:38:09.990Z,4.41
2022-11-22T05:39:09.937Z,4.36
2022-11-22T05:40:09.923Z,4.46
2022-11-22T05:41:09.949Z,4.39
2022-11-22T05:42:09.912Z,4.45
2022-11-22T05:43:09.931Z,4.53
2022-11-22T05:44:09.867Z,4.54
2022-11-22T05:45:09.955Z,4.56
2022-11-22T05:46:09.884Z,4.51
2022-11-22T05:47:09.877Z,4.61
2022-11-22T05:48:09.893Z,4.56
2022-11-22T05:49:09.899Z,4.61
2022-11-22T05:50:10.085Z,4.60
2022-11-22T05:51:09.860Z,4.67
2022-11-22T05:52:09.820Z,4.63
2022-11-22T05:53:09.850Z,4.66
2022-11-22T05:54:09.924Z,4.66
2022-11-22T05:55:09.846Z,4.74
2022-11-22T05:56:09.859Z,4.67
2022-11-22T05:57:09.844Z,4.78
2022-11-22T05:58:09.836Z,4.77
2022-11-22T05:59:09.800Z,4.77
2022-11-22T06:00:09.823Z,4.64
2022-11-22T06:01:09.822Z,4.66
2022-11-22T06:02:09.925Z,4.75
2022-11-22T06:03:09.829Z,4.72
2022-11-22T06:04:09.796Z,4.69
2022-11-22T06:05:09.832Z,4.71
2022-11-22T06:06:09.770Z,4.66
2022-11-22T06:07:10.396Z,4.78
2022-11-22T06:08:09.776Z,4.69
2022-11-22T06:09:09.741Z,4.67
2022-11-22T06:10:09.765Z,4.72
2022-11-22T06:11:09.855Z,4.88
2022-11-22T06:12:09.787Z,4.78
2022-11-22T06:13:09.757Z,4.75
2022-11-22T06:14:09.735Z,4.83
2022-11-22T06:15:09.704Z,4.82
2022-11-22T06:16:09.746Z,4.79
2022-11-22T06:17:09.737Z,4.89
2022-11-22T06:18:09.697Z,4.85
2022-11-22T06:19:09.727Z,4.98
2022-11-22T06:20:09.740Z,4.96
2022-11-22T06:21:09.719Z,4.85
2022-11-22T06:22:09.760Z,4.85
2022-11-22T06:23:09.663Z,4.85
2022-11-22T06:24:09.656Z,4.88
2022-11-22T06:25:09.661Z,4.89
2022-11-22T06:26:09.660Z,4.79
2022-11-22T06:27:09.686Z,4.89
2022-11-22T06:28:09.641Z,4.71
2022-11-22T06:29:09.677Z,4.77
2022-11-22T06:30:10.683Z,4.83
2022-11-22T06:31:09.630Z,4.82
2022-11-22T06:32:09.644Z,4.77
2022-11-22T06:33:09.696Z,4.79
2022-11-22T06:34:09.602Z,4.89
2022-11-22T06:35:09.617Z,4.91
2022-11-22T06:36:09.611Z,4.77
2022-11-22T06:37:09.624Z,4.91
2022-11-22T06:38:09.638Z,4.89
2022-11-22T06:39:09.599Z,4.94
2022-11-22T06:40:09.562Z,4.89
2022-11-22T06:41:09.579Z,4.97
2022-11-22T06:42:09.550Z,4.94
2022-11-22T06:43:09.557Z,4.88
2022-11-22T06:44:10.027Z,4.79
2022-11-22T06:45:09.595Z,4.96
2022-11-22T06:46:09.563Z,4.86
2022-11-22T06:47:09.559Z,4.94
2022-11-22T06:48:09.511Z,4.88
2022-11-22T06:49:09.551Z,4.93
2022-11-22T06:50:09.550Z,4.97
2022-11-22T06:51:09.500Z,5.00
2022-11-22T06:52:09.519Z,4.91
2022-11-22T06:53:26.346Z,5.01
2022-11-22T06:54:11.608Z,4.86
2022-11-22T06:55:34.550Z,4.93
2022-11-22T06:56:09.509Z,4.91
2022-11-22T06:57:09.525Z,4.89
2022-11-22T06:58:09.453Z,4.89
2022-11-22T06:59:09.468Z,5.00
2022-11-22T07:00:09.479Z,5.03
2022-11-22T07:01:09.524Z,4.93
2022-11-22T07:02:09.439Z,5.00
2022-11-22T07:03:09.443Z,5.00
2022-11-22T07:04:09.430Z,5.11
2022-11-22T07:05:25.240Z,5.11
2022-11-22T07:06:11.434Z,5.07
2022-11-22T07:07:09.479Z,5.07
2022-11-22T07:08:13.805Z,5.07
2022-11-22T07:09:10.406Z,5.09
2022-11-22T07:10:09.382Z,5.11
2022-11-22T07:11:09.515Z,5.06
2022-11-22T07:12:09.380Z,5.07
2022-11-22T07:13:09.352Z,5.12
2022-11-22T07:14:09.721Z,5.06
2022-11-22T07:15:10.358Z,5.16
2022-11-22T07:16:09.378Z,5.09
2022-11-22T07:17:09.363Z,5.09
2022-11-22T07:18:09.360Z,5.16
2022-11-22T07:19:09.336Z,5.14
2022-11-22T07:20:09.322Z,5.27
2022-11-22T07:21:12.754Z,5.16
2022-11-22T07:22:10.375Z,5.27
2022-11-22T07:23:09.377Z,5.25
2022-11-22T07:24:09.282Z,5.29
2022-11-22T07:25:09.312Z,5.27
2022-11-22T07:26:09.296Z,5.27
2022-11-22T07:27:09.271Z,5.25
2022-11-22T07:28:09.279Z,5.27
2022-11-22T07:29:09.267Z,5.33
2022-11-22T07:30:09.279Z,5.37
2022-11-22T07:31:09.335Z,5.29
2022-11-22T07:32:09.272Z,5.33
2022-11-22T07:33:09.327Z,5.34
2022-11-22T07:34:09.346Z,5.32
2022-11-22T07:35:09.232Z,5.39
2022-11-22T07:36:09.250Z,5.34
2022-11-22T07:37:09.512Z,5.33
2022-11-22T07:38:10.254Z,5.25
2022-11-22T07:39:09.212Z,5.29
2022-11-22T07:40:09.224Z,5.32
2022-11-22T07:41:09.344Z,5.29
2022-11-22T07:42:09.282Z,5.27
2022-11-22T07:43:09.187Z,5.27
2022-11-22T07:44:09.199Z,5.30
2022-11-22T07:45:09.178Z,5.34
2022-11-22T07:46:09.186Z,5.34
2022-11-22T07:47:09.159Z,5.32
2022-11-22T07:48:09.169Z,5.29
2022-11-22T07:49:09.131Z,5.33
2022-11-22T07:50:09.128Z,5.41
2022-11-22T07:51:09.125Z,5.44
2022-11-22T07:52:09.836Z,5.33
2022-11-22T07:53:09.471Z,5.50
2022-11-22T07:54:09.092Z,5.41
2022-11-22T07:55:13.813Z,5.39
2022-11-22T07:56:10.100Z,5.43
2022-11-22T07:57:09.745Z,5.32
2022-11-22T07:58:09.091Z,5.29
2022-11-22T07:59:09.121Z,5.43
2022-11-22T08:00:09.114Z,5.37
2022-11-22T08:01:09.206Z,5.41
2022-11-22T08:02:09.205Z,5.59
2022-11-22T08:03:09.063Z,5.57
2022-11-22T08:04:09.069Z,5.65
2022-11-22T08:05:09.065Z,5.70
2022-11-22T08:06:09.134Z,5.77
2022-11-22T08:07:09.062Z,5.88
2022-11-22T08:08:09.063Z,5.85
2022-11-22T08:09:09.043Z,5.87
2022-11-22T08:10:09.034Z,5.84
2022-11-22T08:11:08.996Z,5.85
2022-11-22T08:12:09.013Z,5.94
2022-11-22T08:13:09.002Z,5.90
2022-11-22T08:14:08.997Z,6.16
2022-11-22T08:15:09.000Z,6.19
2022-11-22T08:16:09.074Z,6.28
2022-11-22T08:17:08.995Z,6.50
2022-11-22T08:18:08.964Z,6.42
2022-11-22T08:19:08.972Z,6.32
2022-11-22T08:20:08.938Z,6.34
2022-11-22T08:21:08.965Z,6.35
2022-11-22T08:22:09.032Z,6.60
2022-11-22T08:23:08.929Z,6.96
2022-11-22T08:24:08.958Z,7.21
2022-11-22T08:25:08.909Z,7.80
2022-11-22T08:26:09.045Z,7.91
2022-11-22T08:27:08.916Z,8.37
2022-11-22T08:28:08.913Z,8.68
2022-11-22T08:29:13.941Z,9.37
2022-11-22T08:30:10.890Z,9.62
2022-11-22T08:31:08.914Z,10.31
2022-11-22T08:32:08.937Z,10.80
2022-11-22T08:33:08.895Z,11.41
2022-11-22T08:34:09.416Z,11.67
2022-11-22T08:35:09.886Z,12.08
2022-11-22T08:36:08.868Z,12.38
2022-11-22T08:37:08.875Z,12.66
2022-11-22T08:38:08.933Z,12.50
2022-11-22T08:39:08.822Z,11.84
2022-11-22T08:40:08.844Z,10.98
2022-11-22T08:41:08.826Z,10.42
2022-11-22T08:42:08.822Z,9.94
2022-11-22T08:43:08.841Z,9.42
2022-11-22T08:44:08.817Z,8.89
2022-11-22T08:45:08.796Z,8.60
2022-11-22T08:46:08.803Z,8.60
2022-11-22T08:47:08.770Z,8.44
2022-11-22T08:48:08.816Z,8.02
2022-11-22T08:49:08.751Z,7.84
2022-11-22T08:50:08.744Z,7.83
2022-11-22T08:51:08.745Z,7.86
2022-11-22T08:52:08.770Z,7.81
2022-11-22T08:53:08.764Z,7.87
2022-11-22T08:54:09.421Z,7.83
2022-11-22T08:55:08.740Z,7.74
2022-11-22T08:56:08.749Z,7.54
2022-11-22T08:57:08.730Z,7.49
2022-11-22T08:58:08.714Z,7.47
2022-11-22T08:59:08.956Z,7.31
2022-11-22T09:00:08.735Z,7.42
2022-11-22T09:01:08.757Z,7.54
2022-11-22T09:02:08.702Z,7.62
2022-11-22T09:03:08.694Z,7.83
2022-11-22T09:04:08.699Z,7.76
2022-11-22T09:05:08.812Z,7.86
2022-11-22T09:08:26.592Z,7.84
2022-11-22T09:10:09.890Z,7.94
2022-11-22T09:11:08.664Z,7.69
2022-11-22T09:12:08.627Z,7.83
2022-11-22T09:13:08.631Z,7.61
2022-11-22T09:14:08.618Z,7.57
2022-11-22T09:15:08.646Z,7.71
2022-11-22T09:16:08.651Z,7.80
2022-11-22T09:17:11.998Z,7.81
2022-11-22T09:18:08.576Z,7.88
2022-11-22T09:19:08.572Z,7.94
2022-11-22T09:20:08.594Z,7.96
2022-11-22T09:21:08.616Z,8.01
2022-11-22T09:22:08.593Z,8.10
2022-11-22T09:23:08.592Z,8.19
2022-11-22T09:24:08.556Z,8.21
2022-11-22T09:25:08.578Z,8.20
2022-11-22T09:26:08.519Z,8.20
2022-11-22T09:27:08.696Z,8.38
2022-11-22T09:28:08.543Z,8.44
2022-11-22T09:29:08.590Z,8.63
2022-11-22T09:30:08.507Z,8.75
2022-11-22T09:31:08.493Z,8.75
2022-11-22T09:32:08.639Z,8.65
2022-11-22T09:33:08.503Z,8.68
2022-11-22T09:34:08.512Z,8.77
2022-11-22T09:35:08.460Z,8.72
2022-11-22T09:36:08.488Z,8.67
2022-11-22T09:37:08.493Z,8.68
2022-11-22T09:38:08.597Z,8.68
2022-11-22T09:39:08.463Z,8.72
2022-11-22T09:40:08.454Z,8.83
2022-11-22T09:41:08.486Z,8.90
2022-11-22T09:42:08.507Z,8.88
2022-11-22T09:43:08.458Z,8.83
2022-11-22T09:44:08.443Z,8.98
2022-11-22T09:45:08.413Z,8.95
2022-11-22T09:46:08.441Z,9.14
2022-11-22T09:47:08.392Z,9.01
2022-11-22T09:48:10.099Z,8.92
2022-11-22T09:49:09.552Z,8.78
2022-11-22T09:50:08.431Z,8.62
2022-11-22T09:51:08.397Z,8.72
2022-11-22T09:52:08.395Z,8.71
2022-11-22T09:53:08.370Z,8.75
2022-11-22T09:54:08.357Z,8.78
2022-11-22T09:55:08.365Z,8.62
2022-11-22T09:56:08.403Z,8.60
2022-11-22T09:57:08.362Z,8.53
2022-11-22T09:58:08.410Z,8.41
2022-11-22T09:59:08.370Z,8.60
2022-11-22T10:00:08.476Z,8.37
2022-11-22T10:01:08.417Z,8.52
2022-11-22T10:02:18.371Z,8.65
2022-11-22T10:03:08.350Z,8.59
2022-11-22T10:04:08.313Z,8.60
2022-11-22T10:05:08.329Z,8.72
2022-11-22T10:06:08.400Z,8.83
2022-11-22T10:07:08.349Z,8.88
2022-11-22T10:08:08.293Z,8.99
2022-11-22T10:09:08.255Z,9.09
2022-11-22T10:10:08.281Z,9.33
2022-11-22T10:11:08.302Z,9.40
2022-11-22T10:12:08.275Z,9.27
2022-11-22T10:13:08.283Z,9.29
2022-11-22T10:14:08.451Z,9.48
2022-11-22T10:15:08.227Z,9.60
2022-11-22T10:16:08.233Z,9.80
2022-11-22T10:17:08.352Z,9.99
2022-11-22T10:18:09.208Z,10.26
2022-11-22T10:19:08.221Z,9.81
2022-11-22T10:20:08.276Z,9.81
2022-11-22T10:21:08.262Z,10.03
2022-11-22T10:22:08.252Z,10.27
2022-11-22T10:23:08.240Z,10.23
2022-11-22T10:24:08.217Z,10.12
2022-11-22T10:25:08.277Z,10.30
2022-11-22T10:26:08.191Z,10.43
2022-11-22T10:27:08.218Z,10.68
2022-11-22T10:28:08.178Z,11.00
2022-11-22T10:29:08.166Z,11.08
2022-11-22T10:30:08.232Z,11.27
2022-11-22T10:31:08.153Z,11.54
2022-11-22T10:32:08.159Z,11.54
2022-11-22T10:33:08.208Z,11.49
2022-11-22T10:34:08.143Z,11.74
2022-11-22T10:35:08.139Z,11.91
2022-11-22T10:36:08.136Z,12.23
2022-11-22T10:37:08.135Z,12.30
2022-11-22T10:38:08.142Z,12.30
2022-11-22T10:39:08.147Z,12.15
2022-11-22T10:40:08.103Z,11.93
2022-11-22T10:41:08.104Z,11.41
2022-11-22T10:42:08.102Z,11.03
2022-11-22T10:43:08.068Z,10.65
2022-11-22T10:44:08.178Z,10.46
2022-11-22T10:45:08.047Z,10.62
2022-11-22T10:46:08.150Z,10.78
2022-11-22T10:47:08.101Z,10.73
2022-11-22T10:48:08.027Z,10.73
2022-11-22T10:49:08.035Z,10.62
2022-11-22T10:50:08.125Z,10.36
2022-11-22T10:51:08.029Z,10.41
2022-11-22T10:52:08.044Z,10.62
2022-11-22T10:53:08.005Z,10.61
2022-11-22T10:54:07.981Z,10.62
2022-11-22T10:55:08.005Z,10.42
2022-11-22T10:56:07.992Z,10.42
2022-11-22T10:57:07.971Z,10.52
2022-11-22T10:58:08.010Z,10.39
2022-11-22T10:59:07.967Z,10.21
2022-11-22T11:00:07.977Z,10.09
2022-11-22T11:01:08.041Z,10.18
2022-11-22T11:02:08.056Z,10.03
2022-11-22T11:03:07.944Z,10.05
2022-11-22T11:04:07.928Z,10.14
2022-11-22T11:05:07.964Z,10.26
2022-11-22T11:06:22.653Z,10.38
2022-11-22T11:07:12.444Z,10.34
2022-11-22T11:08:35.395Z,10.61
2022-11-22T11:10:09.181Z,10.67
2022-11-22T11:10:12.111Z,10.52
2022-11-22T11:11:08.931Z,10.39
2022-11-22T11:12:07.882Z,10.30
2022-11-22T11:13:07.905Z,10.57
2022-11-22T11:14:07.897Z,10.55
2022-11-22T11:15:07.873Z,10.17
2022-11-22T11:16:07.857Z,10.12
2022-11-22T11:17:07.894Z,10.03
2022-11-22T11:18:07.935Z,10.01
2022-11-22T11:19:07.834Z,9.80
2022-11-22T11:20:07.844Z,10.01
2022-11-22T11:21:07.864Z,10.31
2022-11-22T11:22:07.824Z,10.48
2022-11-22T11:23:14.815Z,10.46
2022-11-22T11:24:08.835Z,10.57
2022-11-22T11:25:07.872Z,10.60
2022-11-22T11:26:07.770Z,10.48
2022-11-22T11:27:07.813Z,10.12
2022-11-22T11:28:07.798Z,10.08
2022-11-22T11:29:07.794Z,10.08
2022-11-22T11:30:07.793Z,10.23
2022-11-22T11:31:07.787Z,10.20
2022-11-22T11:32:07.761Z,10.14
2022-11-22T11:33:07.897Z,10.02
2022-11-22T11:34:08.846Z,9.78
2022-11-22T11:35:07.731Z,9.72
2022-11-22T11:36:07.777Z,9.69
2022-11-22T11:37:07.735Z,9.50
2022-11-22T11:38:07.709Z,8.92
2022-11-22T11:39:07.764Z,8.98
2022-11-22T11:40:07.727Z,9.03
2022-11-22T11:41:07.695Z,9.22
2022-11-22T11:42:07.716Z,9.09
2022-11-22T11:43:07.710Z,9.16
2022-11-22T11:44:07.707Z,9.06
2022-11-22T11:45:07.737Z,9.03
2022-11-22T11:46:07.807Z,9.09
2022-11-22T11:47:07.714Z,9.15
2022-11-22T11:48:07.688Z,9.27
2022-11-22T11:49:07.682Z,9.26
2022-11-22T11:50:07.786Z,9.40
2022-11-22T11:51:07.652Z,9.50
2022-11-22T11:52:07.676Z,9.65
2022-11-22T11:53:07.625Z,9.65
2022-11-22T11:54:07.649Z,9.77
2022-11-22T11:55:07.732Z,9.67
2022-11-22T11:56:07.632Z,9.81
2022-11-22T11:57:07.624Z,9.84
2022-11-22T11:58:07.620Z,9.70
2022-11-22T11:59:07.639Z,9.83
2022-11-22T12:00:07.608Z,9.88
2022-11-22T12:01:07.617Z,9.75
2022-11-22T12:02:07.662Z,9.72
2022-11-22T12:03:07.590Z,9.73
2022-11-22T12:04:07.586Z,9.85
2022-11-22T12:05:07.634Z,9.94
2022-11-22T12:06:07.670Z,9.98
2022-11-22T12:07:07.629Z,10.01
2022-11-22T12:08:07.557Z,10.06
2022-11-22T12:09:07.538Z,10.12
2022-11-22T12:10:07.553Z,10.35
2022-11-22T12:11:07.547Z,10.42
2022-11-22T12:12:07.542Z,10.49
2022-11-22T12:13:07.525Z,10.28
2022-11-22T12:14:22.721Z,10.09
2022-11-22T12:15:11.872Z,10.08
2022-11-22T12:16:08.522Z,9.93
2022-11-22T12:17:07.636Z,10.08
2022-11-22T12:18:07.504Z,10.24
2022-11-22T12:19:07.477Z,10.27
2022-11-22T12:20:07.510Z,10.41
2022-11-22T12:21:07.509Z,10.64
2022-11-22T12:22:07.565Z,10.83
2022-11-22T12:23:07.458Z,10.86
2022-11-22T12:24:40.898Z,10.95
2022-11-22T12:25:31.609Z,10.97
2022-11-22T12:26:09.448Z,10.85
2022-11-22T12:27:07.447Z,10.80
2022-11-22T12:28:07.460Z,10.62
2022-11-22T12:29:07.436Z,10.55
2022-11-22T12:30:07.417Z,10.54
2022-11-22T12:31:13.578Z,10.55
2022-11-22T12:32:08.419Z,10.46
2022-11-22T12:33:07.428Z,10.43
2022-11-22T12:34:07.443Z,10.31
2022-11-22T12:35:07.413Z,9.83
2022-11-22T12:36:07.422Z,9.24
2022-11-22T12:37:07.392Z,9.06
2022-11-22T12:38:07.462Z,8.88
2022-11-22T12:39:07.415Z,8.80
2022-11-22T12:40:07.357Z,8.88
2022-11-22T12:41:07.349Z,8.83
2022-11-22T12:42:07.368Z,8.78
2022-11-22T12:43:07.366Z,8.78
2022-11-22T12:44:07.359Z,8.75
2022-11-22T12:45:07.361Z,8.70
2022-11-22T12:46:07.360Z,8.59
2022-11-22T12:47:07.351Z,8.52
2022-11-22T12:48:07.328Z,8.56
2022-11-22T12:49:07.309Z,8.39
2022-11-22T12:50:07.420Z,8.38
2022-11-22T12:51:07.313Z,8.46
2022-11-22T12:52:07.880Z,8.39
2022-11-22T12:53:07.297Z,8.47
2022-11-22T12:54:07.369Z,8.41
2022-11-22T12:55:07.272Z,8.44
2022-11-22T12:56:07.380Z,8.46
2022-11-22T12:57:07.262Z,8.42
2022-11-22T12:58:07.276Z,8.42
2022-11-22T12:59:07.262Z,8.42
2022-11-22T13:00:07.246Z,8.50
2022-11-22T13:01:07.438Z,8.35
2022-11-22T13:02:07.212Z,8.19
2022-11-22T13:03:07.240Z,8.34
2022-11-22T13:04:07.241Z,8.26
2022-11-22T13:05:07.174Z,8.44
2022-11-22T13:06:07.260Z,8.42
2022-11-22T13:07:07.258Z,8.47
2022-11-22T13:08:07.215Z,8.47
2022-11-22T13:09:07.220Z,8.32
2022-11-22T13:10:07.285Z,8.37
2022-11-22T13:11:07.196Z,8.42
2022-11-22T13:12:07.225Z,8.53
2022-11-22T13:13:07.169Z,8.55
2022-11-22T13:14:07.159Z,8.83
2022-11-22T13:15:07.124Z,8.95
2022-11-22T13:16:07.112Z,8.95
2022-11-22T13:17:07.130Z,8.95